sensor_id;sensor_type;location;lat;lon;timestamp;pressure;altitude;pressure_sealevel;temperature;humidity
72308;BME280;60257;42.638;23.376;2022-08-21T00:00:22;94099.91;;;18.45;84.38
72308;BME280;60257;42.638;23.376;2022-08-21T00:03:02;94087.50;;;18.91;82.08
72308;BME280;60257;42.638;23.376;2022-08-21T00:05:29;94083.69;;;18.78;82.99
72308;BME280;60257;42.638;23.376;2022-08-21T00:07:55;94083.06;;;18.67;83.33
72308;BME280;60257;42.638;23.376;2022-08-21T00:10:22;94089.56;;;18.49;83.80
72308;BME280;60257;42.638;23.376;2022-08-21T00:12:47;94067.81;;;18.55;83.11
72308;BME280;60257;42.638;23.376;2022-08-21T00:15:19;94074.44;;;18.61;83.46
72308;BME280;60257;42.638;23.376;2022-08-21T00:17:44;94074.84;;;18.59;83.74
72308;BME280;60257;42.638;23.376;2022-08-21T00:20:12;94081.66;;;18.51;84.26
72308;BME280;60257;42.638;23.376;2022-08-21T00:22:38;94068.63;;;18.52;83.30
72308;BME280;60257;42.638;23.376;2022-08-21T00:25:05;94078.50;;;18.49;83.77
72308;BME280;60257;42.638;23.376;2022-08-21T00:27:31;94070.81;;;18.94;80.57
72308;BME280;60257;42.638;23.376;2022-08-21T00:29:57;94074.78;;;18.67;82.79
72308;BME280;60257;42.638;23.376;2022-08-21T00:32:24;94060.28;;;18.55;83.68
72308;BME280;60257;42.638;23.376;2022-08-21T00:34:51;94067.38;;;18.53;83.87
72308;BME280;60257;42.638;23.376;2022-08-21T00:37:17;94061.91;;;18.49;83.16
72308;BME280;60257;42.638;23.376;2022-08-21T00:39:43;94069.47;;;18.45;83.14
72308;BME280;60257;42.638;23.376;2022-08-21T00:42:09;94070.28;;;18.42;84.11
72308;BME280;60257;42.638;23.376;2022-08-21T00:44:35;94073.44;;;18.44;84.16
72308;BME280;60257;42.638;23.376;2022-08-21T00:47:01;94073.81;;;18.46;83.98
72308;BME280;60257;42.638;23.376;2022-08-21T00:49:27;94082.44;;;18.52;84.08
72308;BME280;60257;42.638;23.376;2022-08-21T00:51:57;94078.09;;;18.51;83.30
72308;BME280;60257;42.638;23.376;2022-08-21T00:54:25;94076.50;;;18.53;83.41
72308;BME280;60257;42.638;23.376;2022-08-21T00:56:55;94071.44;;;18.79;81.50
72308;BME280;60257;42.638;23.376;2022-08-21T00:59:23;94073.44;;;19.05;80.92
72308;BME280;60257;42.638;23.376;2022-08-21T01:01:49;94065.47;;;19.34;79.22
72308;BME280;60257;42.638;23.376;2022-08-21T01:04:15;94065.97;;;19.02;81.48
72308;BME280;60257;42.638;23.376;2022-08-21T01:06:42;94063.03;;;18.86;82.86
72308;BME280;60257;42.638;23.376;2022-08-21T01:09:07;94049.97;;;19.13;81.08
72308;BME280;60257;42.638;23.376;2022-08-21T01:11:34;94053.88;;;19.16;80.85
72308;BME280;60257;42.638;23.376;2022-08-21T01:14:00;94053.63;;;18.80;82.70
72308;BME280;60257;42.638;23.376;2022-08-21T01:16:26;94048.19;;;18.73;83.98
72308;BME280;60257;42.638;23.376;2022-08-21T01:18:52;94053.09;;;18.62;84.45
72308;BME280;60257;42.638;23.376;2022-08-21T01:21:24;94043.69;;;18.55;84.35
72308;BME280;60257;42.638;23.376;2022-08-21T01:23:53;94050.81;;;18.56;83.95
72308;BME280;60257;42.638;23.376;2022-08-21T01:26:25;94045.25;;;18.53;82.72
72308;BME280;60257;42.638;23.376;2022-08-21T01:29:09;94047.38;;;18.76;82.06
72308;BME280;60257;42.638;23.376;2022-08-21T01:31:37;94054.75;;;18.55;83.99
72308;BME280;60257;42.638;23.376;2022-08-21T01:34:03;94050.00;;;18.52;84.23
72308;BME280;60257;42.638;23.376;2022-08-21T01:36:29;94039.84;;;18.46;84.72
72308;BME280;60257;42.638;23.376;2022-08-21T01:38:55;94049.72;;;18.43;85.27
72308;BME280;60257;42.638;23.376;2022-08-21T01:41:21;94053.63;;;18.49;85.17
72308;BME280;60257;42.638;23.376;2022-08-21T01:43:47;94046.47;;;18.52;84.89
72308;BME280;60257;42.638;23.376;2022-08-21T01:46:12;94042.91;;;18.82;83.27
72308;BME280;60257;42.638;23.376;2022-08-21T01:48:38;94044.34;;;18.67;84.22
72308;BME280;60257;42.638;23.376;2022-08-21T01:51:05;94047.97;;;18.60;84.90
72308;BME280;60257;42.638;23.376;2022-08-21T01:53:32;94054.75;;;18.55;84.97
72308;BME280;60257;42.638;23.376;2022-08-21T01:56:02;94050.78;;;18.53;85.54
72308;BME280;60257;42.638;23.376;2022-08-21T01:58:28;94059.19;;;18.46;85.70
72308;BME280;60257;42.638;23.376;2022-08-21T02:00:54;94057.56;;;18.48;86.13
72308;BME280;60257;42.638;23.376;2022-08-21T02:03:19;94056.94;;;18.71;84.51
72308;BME280;60257;42.638;23.376;2022-08-21T02:05:45;94057.84;;;18.61;84.86
72308;BME280;60257;42.638;23.376;2022-08-21T02:08:10;94054.03;;;18.48;85.46
72308;BME280;60257;42.638;23.376;2022-08-21T02:10:36;94060.78;;;18.43;85.79
72308;BME280;60257;42.638;23.376;2022-08-21T02:13:02;94056.88;;;18.41;86.26
72308;BME280;60257;42.638;23.376;2022-08-21T02:15:29;94069.09;;;18.43;86.05
72308;BME280;60257;42.638;23.376;2022-08-21T02:17:58;94071.44;;;18.45;86.29
72308;BME280;60257;42.638;23.376;2022-08-21T02:20:46;94065.06;;;18.51;85.99
72308;BME280;60257;42.638;23.376;2022-08-21T02:23:13;94066.31;;;18.47;86.09
72308;BME280;60257;42.638;23.376;2022-08-21T02:25:39;94075.41;;;18.44;86.12
72308;BME280;60257;42.638;23.376;2022-08-21T02:28:08;94081.00;;;18.40;85.55
72308;BME280;60257;42.638;23.376;2022-08-21T02:30:38;94083.84;;;18.33;86.03
72308;BME280;60257;42.638;23.376;2022-08-21T02:33:04;94078.75;;;18.28;86.99
72308;BME280;60257;42.638;23.376;2022-08-21T02:35:30;94076.81;;;18.25;86.73
72308;BME280;60257;42.638;23.376;2022-08-21T02:38:02;94083.97;;;18.23;87.06
72308;BME280;60257;42.638;23.376;2022-08-21T02:40:33;94074.50;;;18.20;86.75
72308;BME280;60257;42.638;23.376;2022-08-21T02:43:01;94077.66;;;18.22;86.47
72308;BME280;60257;42.638;23.376;2022-08-21T02:45:27;94069.31;;;18.26;86.53
72308;BME280;60257;42.638;23.376;2022-08-21T02:48:00;94074.00;;;18.29;85.64
72308;BME280;60257;42.638;23.376;2022-08-21T02:50:36;94077.78;;;18.45;85.35
72308;BME280;60257;42.638;23.376;2022-08-21T02:53:02;94074.63;;;18.43;85.65
72308;BME280;60257;42.638;23.376;2022-08-21T02:55:30;94080.63;;;18.38;86.46
72308;BME280;60257;42.638;23.376;2022-08-21T02:57:56;94085.34;;;18.38;86.12
72308;BME280;60257;42.638;23.376;2022-08-21T03:00:23;94078.97;;;18.44;85.51
72308;BME280;60257;42.638;23.376;2022-08-21T03:02:50;94086.97;;;18.69;83.46
72308;BME280;60257;42.638;23.376;2022-08-21T03:05:17;94083.75;;;18.40;84.40
72308;BME280;60257;42.638;23.376;2022-08-21T03:07:45;94084.59;;;18.37;84.37
72308;BME280;60257;42.638;23.376;2022-08-21T03:10:11;94081.03;;;18.37;84.48
72308;BME280;60257;42.638;23.376;2022-08-21T03:12:37;94074.41;;;18.31;84.52
72308;BME280;60257;42.638;23.376;2022-08-21T03:15:09;94075.59;;;18.30;84.06
72308;BME280;60257;42.638;23.376;2022-08-21T03:17:35;94074.00;;;18.32;84.37
72308;BME280;60257;42.638;23.376;2022-08-21T03:20:01;94071.53;;;18.38;83.65
72308;BME280;60257;42.638;23.376;2022-08-21T03:22:27;94066.91;;;18.28;84.34
72308;BME280;60257;42.638;23.376;2022-08-21T03:24:53;94077.06;;;18.38;83.40
72308;BME280;60257;42.638;23.376;2022-08-21T03:27:19;94075.00;;;18.45;82.65
72308;BME280;60257;42.638;23.376;2022-08-21T03:29:45;94066.38;;;18.40;82.81
72308;BME280;60257;42.638;23.376;2022-08-21T03:32:11;94071.53;;;18.38;83.16
72308;BME280;60257;42.638;23.376;2022-08-21T03:34:37;94067.28;;;18.30;83.38
72308;BME280;60257;42.638;23.376;2022-08-21T03:37:05;94069.28;;;18.29;83.74
72308;BME280;60257;42.638;23.376;2022-08-21T03:39:30;94076.78;;;18.29;84.10
72308;BME280;60257;42.638;23.376;2022-08-21T03:41:56;94075.19;;;18.31;84.42
72308;BME280;60257;42.638;23.376;2022-08-21T03:44:21;94090.13;;;18.37;83.74
72308;BME280;60257;42.638;23.376;2022-08-21T03:46:47;94079.81;;;18.41;82.51
72308;BME280;60257;42.638;23.376;2022-08-21T03:49:12;94080.09;;;18.50;81.70
72308;BME280;60257;42.638;23.376;2022-08-21T03:51:38;94075.75;;;18.49;81.92
72308;BME280;60257;42.638;23.376;2022-08-21T03:54:04;94072.31;;;18.38;82.42
72308;BME280;60257;42.638;23.376;2022-08-21T03:56:30;94081.16;;;18.26;83.28
72308;BME280;60257;42.638;23.376;2022-08-21T03:58:55;94093.13;;;18.16;83.87
72308;BME280;60257;42.638;23.376;2022-08-21T04:01:21;94086.53;;;18.06;84.69
72308;BME280;60257;42.638;23.376;2022-08-21T04:03:47;94097.22;;;18.01;85.06
72308;BME280;60257;42.638;23.376;2022-08-21T04:06:12;94094.97;;;17.92;85.90
72308;BME280;60257;42.638;23.376;2022-08-21T04:08:38;94105.28;;;17.85;86.04
72308;BME280;60257;42.638;23.376;2022-08-21T04:11:03;94095.09;;;17.78;86.85
72308;BME280;60257;42.638;23.376;2022-08-21T04:13:30;94088.75;;;17.81;86.68
72308;BME280;60257;42.638;23.376;2022-08-21T04:15:56;94095.00;;;17.85;86.46
72308;BME280;60257;42.638;23.376;2022-08-21T04:18:23;94076.94;;;17.77;86.39
72308;BME280;60257;42.638;23.376;2022-08-21T04:20:51;94088.66;;;17.92;86.14
72308;BME280;60257;42.638;23.376;2022-08-21T04:23:19;94086.63;;;17.96;85.84
72308;BME280;60257;42.638;23.376;2022-08-21T04:25:44;94082.72;;;17.90;86.43
72308;BME280;60257;42.638;23.376;2022-08-21T04:28:10;94092.97;;;17.93;86.33
72308;BME280;60257;42.638;23.376;2022-08-21T04:30:35;94088.59;;;17.95;85.73
72308;BME280;60257;42.638;23.376;2022-08-21T04:33:01;94089.00;;;17.94;85.80
72308;BME280;60257;42.638;23.376;2022-08-21T04:35:27;94087.72;;;18.05;86.09
72308;BME280;60257;42.638;23.376;2022-08-21T04:37:53;94083.81;;;18.03;85.56
72308;BME280;60257;42.638;23.376;2022-08-21T04:40:20;94081.78;;;18.07;84.71
72308;BME280;60257;42.638;23.376;2022-08-21T04:42:49;94085.78;;;18.02;84.80
72308;BME280;60257;42.638;23.376;2022-08-21T04:45:25;94087.38;;;18.00;84.99
72308;BME280;60257;42.638;23.376;2022-08-21T04:47:52;94076.66;;;18.05;84.79
72308;BME280;60257;42.638;23.376;2022-08-21T04:50:18;94082.56;;;18.07;84.03
72308;BME280;60257;42.638;23.376;2022-08-21T04:52:44;94077.38;;;18.09;83.97
72308;BME280;60257;42.638;23.376;2022-08-21T04:55:10;94084.50;;;18.10;84.19
72308;BME280;60257;42.638;23.376;2022-08-21T04:57:37;94074.22;;;18.11;83.62
72308;BME280;60257;42.638;23.376;2022-08-21T05:00:04;94081.69;;;18.14;83.66
72308;BME280;60257;42.638;23.376;2022-08-21T05:02:31;94078.19;;;18.10;83.91
72308;BME280;60257;42.638;23.376;2022-08-21T05:04:59;94074.97;;;18.15;83.92
72308;BME280;60257;42.638;23.376;2022-08-21T05:07:26;94074.13;;;18.18;84.12
72308;BME280;60257;42.638;23.376;2022-08-21T05:09:54;94077.84;;;18.38;83.89
72308;BME280;60257;42.638;23.376;2022-08-21T05:12:19;94080.88;;;18.51;83.92
72308;BME280;60257;42.638;23.376;2022-08-21T05:14:45;94076.97;;;18.79;81.75
72308;BME280;60257;42.638;23.376;2022-08-21T05:17:12;94078.34;;;18.94;80.95
72308;BME280;60257;42.638;23.376;2022-08-21T05:19:37;94085.25;;;19.09;80.82
72308;BME280;60257;42.638;23.376;2022-08-21T05:22:03;94072.03;;;19.20;80.84
72308;BME280;60257;42.638;23.376;2022-08-21T05:24:28;94074.63;;;19.31;81.00
72308;BME280;60257;42.638;23.376;2022-08-21T05:26:54;94089.75;;;19.53;79.58
72308;BME280;60257;42.638;23.376;2022-08-21T05:29:20;94094.00;;;19.58;78.14
72308;BME280;60257;42.638;23.376;2022-08-21T05:31:47;94088.47;;;19.58;78.97
72308;BME280;60257;42.638;23.376;2022-08-21T05:34:14;94089.44;;;19.71;78.39
72308;BME280;60257;42.638;23.376;2022-08-21T05:36:40;94081.78;;;19.78;77.81
72308;BME280;60257;42.638;23.376;2022-08-21T05:39:05;94074.13;;;19.86;77.75
72308;BME280;60257;42.638;23.376;2022-08-21T05:41:31;94078.59;;;20.03;77.72
72308;BME280;60257;42.638;23.376;2022-08-21T05:43:56;94068.06;;;20.14;77.08
72308;BME280;60257;42.638;23.376;2022-08-21T05:46:22;94066.41;;;20.40;75.87
72308;BME280;60257;42.638;23.376;2022-08-21T05:48:47;94073.72;;;20.70;73.64
72308;BME280;60257;42.638;23.376;2022-08-21T05:51:14;94070.31;;;20.98;72.04
72308;BME280;60257;42.638;23.376;2022-08-21T05:53:41;94069.59;;;21.14;71.48
72308;BME280;60257;42.638;23.376;2022-08-21T05:56:11;94062.75;;;21.18;71.33
72308;BME280;60257;42.638;23.376;2022-08-21T05:58:36;94067.22;;;21.12;71.08
72308;BME280;60257;42.638;23.376;2022-08-21T06:01:03;94065.16;;;21.16;71.57
72308;BME280;60257;42.638;23.376;2022-08-21T06:03:32;94070.38;;;21.14;71.66
72308;BME280;60257;42.638;23.376;2022-08-21T06:05:59;94071.59;;;21.13;71.75
72308;BME280;60257;42.638;23.376;2022-08-21T06:08:26;94071.66;;;21.10;71.88
72308;BME280;60257;42.638;23.376;2022-08-21T06:10:53;94064.09;;;21.10;72.69
72308;BME280;60257;42.638;23.376;2022-08-21T06:13:20;94066.34;;;20.99;72.51
72308;BME280;60257;42.638;23.376;2022-08-21T06:15:47;94069.97;;;20.96;73.54
72308;BME280;60257;42.638;23.376;2022-08-21T06:18:13;94058.19;;;21.08;73.17
72308;BME280;60257;42.638;23.376;2022-08-21T06:20:40;94069.09;;;21.19;72.28
72308;BME280;60257;42.638;23.376;2022-08-21T06:23:06;94067.69;;;21.27;71.23
72308;BME280;60257;42.638;23.376;2022-08-21T06:25:32;94067.66;;;21.11;73.49
72308;BME280;60257;42.638;23.376;2022-08-21T06:28:08;94067.88;;;21.36;71.51
72308;BME280;60257;42.638;23.376;2022-08-21T06:30:34;94070.50;;;21.43;71.19
72308;BME280;60257;42.638;23.376;2022-08-21T06:33:01;94064.06;;;21.46;70.03
72308;BME280;60257;42.638;23.376;2022-08-21T06:35:27;94064.97;;;21.59;68.30
72308;BME280;60257;42.638;23.376;2022-08-21T06:37:55;94057.81;;;21.75;67.61
72308;BME280;60257;42.638;23.376;2022-08-21T06:40:21;94065.00;;;22.04;66.63
72308;BME280;60257;42.638;23.376;2022-08-21T06:42:47;94070.75;;;22.14;67.77
72308;BME280;60257;42.638;23.376;2022-08-21T06:45:12;94073.59;;;22.26;67.04
72308;BME280;60257;42.638;23.376;2022-08-21T06:47:38;94075.72;;;22.35;67.16
72308;BME280;60257;42.638;23.376;2022-08-21T06:50:04;94080.56;;;22.47;65.00
72308;BME280;60257;42.638;23.376;2022-08-21T06:52:32;94075.53;;;22.42;64.67
72308;BME280;60257;42.638;23.376;2022-08-21T06:54:58;94071.84;;;22.32;65.46
72308;BME280;60257;42.638;23.376;2022-08-21T06:57:23;94081.44;;;22.44;65.59
72308;BME280;60257;42.638;23.376;2022-08-21T06:59:51;94084.16;;;22.76;64.80
72308;BME280;60257;42.638;23.376;2022-08-21T07:02:17;94089.31;;;22.62;65.16
72308;BME280;60257;42.638;23.376;2022-08-21T07:04:42;94076.00;;;22.53;65.63
72308;BME280;60257;42.638;23.376;2022-08-21T07:07:08;94071.47;;;22.30;66.51
72308;BME280;60257;42.638;23.376;2022-08-21T07:09:33;94074.53;;;22.20;67.63
72308;BME280;60257;42.638;23.376;2022-08-21T07:11:59;94078.53;;;22.19;67.67
72308;BME280;60257;42.638;23.376;2022-08-21T07:14:25;94085.72;;;22.03;68.18
72308;BME280;60257;42.638;23.376;2022-08-21T07:16:51;94083.09;;;22.41;66.56
72308;BME280;60257;42.638;23.376;2022-08-21T07:19:17;94082.75;;;22.39;66.16
72308;BME280;60257;42.638;23.376;2022-08-21T07:21:43;94079.91;;;21.98;67.34
72308;BME280;60257;42.638;23.376;2022-08-21T07:24:08;94077.84;;;22.15;68.04
72308;BME280;60257;42.638;23.376;2022-08-21T07:26:34;94075.16;;;22.27;67.79
72308;BME280;60257;42.638;23.376;2022-08-21T07:29:00;94073.34;;;22.04;67.92
72308;BME280;60257;42.638;23.376;2022-08-21T07:31:25;94068.69;;;22.01;66.83
72308;BME280;60257;42.638;23.376;2022-08-21T07:33:51;94066.84;;;22.40;66.14
72308;BME280;60257;42.638;23.376;2022-08-21T07:36:17;94061.75;;;21.93;67.89
72308;BME280;60257;42.638;23.376;2022-08-21T07:38:43;94058.09;;;21.64;68.43
72308;BME280;60257;42.638;23.376;2022-08-21T07:41:22;94064.16;;;21.75;68.66
72308;BME280;60257;42.638;23.376;2022-08-21T07:43:48;94053.44;;;21.90;67.77
72308;BME280;60257;42.638;23.376;2022-08-21T07:46:14;94055.28;;;22.13;66.54
72308;BME280;60257;42.638;23.376;2022-08-21T07:48:40;94051.72;;;22.12;66.21
72308;BME280;60257;42.638;23.376;2022-08-21T07:51:08;94051.16;;;22.17;66.37
72308;BME280;60257;42.638;23.376;2022-08-21T07:53:35;94062.06;;;22.12;66.41
72308;BME280;60257;42.638;23.376;2022-08-21T07:56:01;94055.06;;;22.20;65.55
72308;BME280;60257;42.638;23.376;2022-08-21T07:58:27;94057.44;;;22.05;65.70
72308;BME280;60257;42.638;23.376;2022-08-21T08:00:52;94060.06;;;22.12;65.47
72308;BME280;60257;42.638;23.376;2022-08-21T08:03:18;94048.03;;;22.15;65.71
72308;BME280;60257;42.638;23.376;2022-08-21T08:05:43;94050.53;;;22.55;63.62
72308;BME280;60257;42.638;23.376;2022-08-21T08:08:09;94050.94;;;22.53;64.04
72308;BME280;60257;42.638;23.376;2022-08-21T08:10:35;94056.47;;;22.69;63.84
72308;BME280;60257;42.638;23.376;2022-08-21T08:13:02;94053.84;;;22.78;63.77
72308;BME280;60257;42.638;23.376;2022-08-21T08:15:28;94059.16;;;22.73;63.23
72308;BME280;60257;42.638;23.376;2022-08-21T08:17:54;94057.44;;;22.92;62.83
72308;BME280;60257;42.638;23.376;2022-08-21T08:20:21;94051.22;;;23.00;62.56
72308;BME280;60257;42.638;23.376;2022-08-21T08:22:48;94056.34;;;23.02;62.14
72308;BME280;60257;42.638;23.376;2022-08-21T08:25:15;94057.44;;;23.17;62.65
72308;BME280;60257;42.638;23.376;2022-08-21T08:27:41;94061.34;;;23.32;61.59
72308;BME280;60257;42.638;23.376;2022-08-21T08:30:10;94056.16;;;23.59;61.81
72308;BME280;60257;42.638;23.376;2022-08-21T08:32:36;94062.81;;;23.74;60.45
72308;BME280;60257;42.638;23.376;2022-08-21T08:35:03;94069.94;;;23.75;60.40
72308;BME280;60257;42.638;23.376;2022-08-21T08:37:28;94069.44;;;23.55;60.60
72308;BME280;60257;42.638;23.376;2022-08-21T08:39:54;94065.22;;;23.85;60.21
72308;BME280;60257;42.638;23.376;2022-08-21T08:42:30;94066.44;;;23.97;60.08
72308;BME280;60257;42.638;23.376;2022-08-21T08:45:17;94056.94;;;24.07;58.43
72308;BME280;60257;42.638;23.376;2022-08-21T08:47:51;94057.38;;;23.58;60.07
72308;BME280;60257;42.638;23.376;2022-08-21T08:50:47;94059.81;;;23.44;60.78
72308;BME280;60257;42.638;23.376;2022-08-21T08:55:46;94053.00;;;23.57;59.99
72308;BME280;60257;42.638;23.376;2022-08-21T08:58:36;94051.88;;;24.14;58.08
72308;BME280;60257;42.638;23.376;2022-08-21T09:01:06;94049.88;;;24.15;57.64
72308;BME280;60257;42.638;23.376;2022-08-21T09:03:39;94040.81;;;23.77;59.72
72308;BME280;60257;42.638;23.376;2022-08-21T09:11:41;94045.63;;;24.10;58.62
72308;BME280;60257;42.638;23.376;2022-08-21T09:14:27;94041.72;;;24.21;56.74
72308;BME280;60257;42.638;23.376;2022-08-21T09:22:48;94032.00;;;23.78;60.94
72308;BME280;60257;42.638;23.376;2022-08-21T09:25:25;94030.75;;;23.92;61.50
72308;BME280;60257;42.638;23.376;2022-08-21T09:27:51;94027.00;;;24.20;60.71
72308;BME280;60257;42.638;23.376;2022-08-21T09:30:17;94021.28;;;24.45;59.90
72308;BME280;60257;42.638;23.376;2022-08-21T09:32:44;94022.59;;;24.75;58.58
72308;BME280;60257;42.638;23.376;2022-08-21T09:35:18;94023.78;;;24.87;57.61
72308;BME280;60257;42.638;23.376;2022-08-21T09:37:58;94012.25;;;25.07;57.44
72308;BME280;60257;42.638;23.376;2022-08-21T09:43:06;94017.31;;;25.30;56.92
72308;BME280;60257;42.638;23.376;2022-08-21T09:45:33;94023.66;;;25.21;56.93
72308;BME280;60257;42.638;23.376;2022-08-21T09:48:20;94023.69;;;25.30;55.80
72308;BME280;60257;42.638;23.376;2022-08-21T09:50:47;94010.97;;;25.38;54.81
72308;BME280;60257;42.638;23.376;2022-08-21T09:53:21;94022.53;;;25.19;55.82
72308;BME280;60257;42.638;23.376;2022-08-21T09:56:00;94017.25;;;25.12;55.63
72308;BME280;60257;42.638;23.376;2022-08-21T09:58:48;94016.34;;;24.93;55.69
72308;BME280;60257;42.638;23.376;2022-08-21T10:01:17;94008.81;;;24.81;56.70
72308;BME280;60257;42.638;23.376;2022-08-21T10:03:44;94006.56;;;24.67;57.87
72308;BME280;60257;42.638;23.376;2022-08-21T10:06:21;94010.97;;;24.33;58.64
72308;BME280;60257;42.638;23.376;2022-08-21T10:08:48;94003.84;;;24.32;58.22
72308;BME280;60257;42.638;23.376;2022-08-21T10:11:16;94006.22;;;24.21;58.70
72308;BME280;60257;42.638;23.376;2022-08-21T10:13:58;94004.09;;;24.47;57.36
72308;BME280;60257;42.638;23.376;2022-08-21T10:19:47;94003.50;;;24.30;58.52
72308;BME280;60257;42.638;23.376;2022-08-21T10:22:32;93993.66;;;24.38;58.89
72308;BME280;60257;42.638;23.376;2022-08-21T10:25:11;93992.84;;;24.59;59.38
72308;BME280;60257;42.638;23.376;2022-08-21T10:28:02;93996.34;;;24.73;58.67
72308;BME280;60257;42.638;23.376;2022-08-21T10:30:38;94002.97;;;24.88;57.29
72308;BME280;60257;42.638;23.376;2022-08-21T10:33:18;93992.25;;;25.17;56.14
72308;BME280;60257;42.638;23.376;2022-08-21T10:36:21;93985.66;;;25.51;54.84
72308;BME280;60257;42.638;23.376;2022-08-21T10:47:04;93977.19;;;25.55;54.34
72308;BME280;60257;42.638;23.376;2022-08-21T10:55:18;93965.16;;;25.45;54.58
72308;BME280;60257;42.638;23.376;2022-08-21T10:58:12;93956.63;;;25.49;55.60
72308;BME280;60257;42.638;23.376;2022-08-21T11:00:46;93954.38;;;25.65;54.00
72308;BME280;60257;42.638;23.376;2022-08-21T11:03:39;93953.59;;;25.74;54.08
72308;BME280;60257;42.638;23.376;2022-08-21T11:06:18;93953.59;;;25.83;52.30
72308;BME280;60257;42.638;23.376;2022-08-21T11:08:57;93945.53;;;26.03;50.63
72308;BME280;60257;42.638;23.376;2022-08-21T11:11:32;93939.63;;;25.25;52.40
72308;BME280;60257;42.638;23.376;2022-08-21T11:14:10;93928.63;;;25.30;53.26
72308;BME280;60257;42.638;23.376;2022-08-21T11:16:45;93933.59;;;25.26;52.15
72308;BME280;60257;42.638;23.376;2022-08-21T11:22:17;93920.25;;;25.39;54.23
72308;BME280;60257;42.638;23.376;2022-08-21T11:24:49;93925.84;;;25.39;53.52
72308;BME280;60257;42.638;23.376;2022-08-21T11:27:27;93925.06;;;25.39;53.00
72308;BME280;60257;42.638;23.376;2022-08-21T11:29:59;93924.44;;;25.35;53.39
72308;BME280;60257;42.638;23.376;2022-08-21T11:43:42;93926.69;;;25.85;53.22
72308;BME280;60257;42.638;23.376;2022-08-21T11:51:53;93920.94;;;25.71;53.62
72308;BME280;60257;42.638;23.376;2022-08-21T11:54:42;93926.38;;;25.74;53.32
72308;BME280;60257;42.638;23.376;2022-08-21T11:57:29;93917.22;;;25.92;52.19
72308;BME280;60257;42.638;23.376;2022-08-21T12:00:26;93919.72;;;25.99;49.71
72308;BME280;60257;42.638;23.376;2022-08-21T12:02:55;93909.75;;;25.98;49.33
72308;BME280;60257;42.638;23.376;2022-08-21T12:05:30;93910.06;;;25.91;49.46
72308;BME280;60257;42.638;23.376;2022-08-21T12:08:30;93897.63;;;25.74;49.31
72308;BME280;60257;42.638;23.376;2022-08-21T12:13:58;93898.53;;;25.71;49.85
72308;BME280;60257;42.638;23.376;2022-08-21T12:16:33;93899.94;;;25.66;50.63
72308;BME280;60257;42.638;23.376;2022-08-21T12:19:05;93904.47;;;25.64;52.25
72308;BME280;60257;42.638;23.376;2022-08-21T12:21:31;93909.41;;;25.51;52.69
72308;BME280;60257;42.638;23.376;2022-08-21T12:30:06;93910.66;;;25.59;52.56
72308;BME280;60257;42.638;23.376;2022-08-21T12:32:44;93921.88;;;25.59;52.26
72308;BME280;60257;42.638;23.376;2022-08-21T12:35:19;93907.34;;;25.51;52.12
72308;BME280;60257;42.638;23.376;2022-08-21T12:37:59;93908.28;;;25.48;51.84
72308;BME280;60257;42.638;23.376;2022-08-21T12:43:11;93909.22;;;25.45;53.14
72308;BME280;60257;42.638;23.376;2022-08-21T12:45:47;93905.63;;;25.26;53.57
72308;BME280;60257;42.638;23.376;2022-08-21T12:48:20;93900.34;;;25.28;54.07
72308;BME280;60257;42.638;23.376;2022-08-21T12:50:55;93901.28;;;25.43;53.97
72308;BME280;60257;42.638;23.376;2022-08-21T12:55:57;93906.22;;;25.21;56.17
72308;BME280;60257;42.638;23.376;2022-08-21T12:58:29;93899.34;;;25.04;57.08
72308;BME280;60257;42.638;23.376;2022-08-21T13:01:28;93891.72;;;24.95;57.05
72308;BME280;60257;42.638;23.376;2022-08-21T13:03:59;93885.16;;;24.89;56.89
72308;BME280;60257;42.638;23.376;2022-08-21T13:06:29;93888.97;;;24.83;57.07
72308;BME280;60257;42.638;23.376;2022-08-21T13:09:06;93888.81;;;24.77;57.59
72308;BME280;60257;42.638;23.376;2022-08-21T13:11:33;93890.69;;;24.80;57.02
72308;BME280;60257;42.638;23.376;2022-08-21T13:14:00;93895.59;;;24.67;57.91
72308;BME280;60257;42.638;23.376;2022-08-21T13:16:28;93894.34;;;24.68;58.33
72308;BME280;60257;42.638;23.376;2022-08-21T13:19:05;93885.38;;;24.73;57.98
72308;BME280;60257;42.638;23.376;2022-08-21T13:21:39;93876.78;;;24.58;57.96
72308;BME280;60257;42.638;23.376;2022-08-21T13:26:41;93875.53;;;24.59;58.90
72308;BME280;60257;42.638;23.376;2022-08-21T13:29:12;93884.66;;;24.51;59.53
72308;BME280;60257;42.638;23.376;2022-08-21T13:31:41;93873.09;;;24.62;58.87
72308;BME280;60257;42.638;23.376;2022-08-21T13:34:10;93857.63;;;24.79;58.35
72308;BME280;60257;42.638;23.376;2022-08-21T13:36:37;93859.56;;;24.91;58.78
72308;BME280;60257;42.638;23.376;2022-08-21T13:39:08;93847.19;;;25.10;58.57
72308;BME280;60257;42.638;23.376;2022-08-21T13:41:38;93858.53;;;25.07;59.42
72308;BME280;60257;42.638;23.376;2022-08-21T13:44:13;93865.19;;;25.09;60.78
72308;BME280;60257;42.638;23.376;2022-08-21T13:46:40;93861.78;;;25.05;62.13
72308;BME280;60257;42.638;23.376;2022-08-21T13:49:06;93867.38;;;25.14;60.83
72308;BME280;60257;42.638;23.376;2022-08-21T13:51:33;93872.78;;;25.09;61.23
72308;BME280;60257;42.638;23.376;2022-08-21T13:54:00;93871.78;;;25.42;59.28
72308;BME280;60257;42.638;23.376;2022-08-21T13:56:30;93858.84;;;25.18;60.14
72308;BME280;60257;42.638;23.376;2022-08-21T13:58:57;93858.53;;;25.07;60.49
72308;BME280;60257;42.638;23.376;2022-08-21T14:01:48;93863.63;;;25.08;60.90
72308;BME280;60257;42.638;23.376;2022-08-21T14:04:29;93863.34;;;25.06;60.14
72308;BME280;60257;42.638;23.376;2022-08-21T14:06:56;93859.31;;;25.16;60.37
72308;BME280;60257;42.638;23.376;2022-08-21T14:11:56;93859.13;;;25.01;60.06
72308;BME280;60257;42.638;23.376;2022-08-21T14:14:27;93854.94;;;24.97;60.43